Time;durP1;ratioP1;P1;durP2;ratioP2;P2;SDS_P1;SDS_P2;PMS_P1;PMS_P2;Temp;Humidity;BMP_temperature;BMP_pressure;BME280_temperature;BME280_humidity;BME280_pressure;Samples;Min_cycle;Max_cycle;Signal;HPM_P1;HPM_P2
2023/09/21 00:02:24;;;;;;;2.30;1.27;;;;;;;;;;4996035;28;20548;-66
2023/09/21 00:04:51;;;;;;;2.15;1.60;;;;;;;;;;4997262;28;20065;-66
2023/09/21 00:07:18;;;;;;;2.78;1.52;;;;;;;;;;4986884;28;20126;-66
2023/09/21 00:09:44;;;;;;;2.22;1.58;;;;;;;;;;4997032;28;20030;-66
2023/09/21 00:12:10;;;;;;;3.22;1.38;;;;;;;;;;4993825;28;20042;-66
2023/09/21 00:14:35;;;;;;;1.95;1.17;;;;;;;;;;5027211;28;20093;-66
2023/09/21 00:17:02;;;;;;;1.67;1.20;;;;;;;;;;4990397;28;20034;-66
2023/09/21 00:19:28;;;;;;;1.73;1.42;;;;;;;;;;4990573;28;20057;-66
2023/09/21 00:21:57;;;;;;;4.38;1.77;;;;;;;;;;4995093;28;20034;-66
2023/09/21 00:24:22;;;;;;;2.83;1.30;;;;;;;;;;4993819;28;20084;-66
2023/09/21 00:26:50;;;;;;;2.25;1.35;;;;;;;;;;4982354;28;20038;-66
2023/09/21 00:29:16;;;;;;;1.50;1.20;;;;;;;;;;4991454;28;20032;-66
2023/09/21 00:31:42;;;;;;;1.52;1.25;;;;;;;;;;4983940;28;20090;-66
2023/09/21 00:34:08;;;;;;;1.35;1.20;;;;;;;;;;4990605;28;20648;-66
2023/09/21 00:36:35;;;;;;;2.95;1.30;;;;;;;;;;4997244;28;20061;-66
2023/09/21 00:39:01;;;;;;;2.10;1.15;;;;;;;;;;4992884;28;20026;-66
2023/09/21 00:41:30;;;;;;;2.13;1.50;;;;;;;;;;4993907;28;20570;-66
2023/09/21 00:43:56;;;;;;;5.63;1.20;;;;;;;;;;5006327;28;20058;-66
2023/09/21 00:46:25;;;;;;;1.98;1.50;;;;;;;;;;4990887;28;20075;-66
2023/09/21 00:48:50;;;;;;;3.92;1.20;;;;;;;;;;4988563;28;20396;-66
2023/09/21 00:51:16;;;;;;;2.25;1.48;;;;;;;;;;5003947;28;20046;-66
2023/09/21 00:53:44;;;;;;;2.45;1.42;;;;;;;;;;5010628;28;20057;-66
2023/09/21 00:56:12;;;;;;;3.45;1.67;;;;;;;;;;4993675;28;20727;-66
2023/09/21 00:58:44;;;;;;;3.42;1.60;;;;;;;;;;4984505;28;20027;-66
2023/09/21 01:01:22;;;;;;;2.00;1.27;;;;;;;;;;4995474;28;20056;-67
2023/09/21 01:03:53;;;;;;;3.67;1.33;;;;;;;;;;4992266;28;20030;-66
2023/09/21 01:06:18;;;;;;;1.92;1.40;;;;;;;;;;4992299;28;20065;-66
2023/09/21 01:08:44;;;;;;;1.25;1.20;;;;;;;;;;4994436;28;20030;-67
2023/09/21 01:11:11;;;;;;;1.63;1.27;;;;;;;;;;4996139;28;20040;-66
2023/09/21 01:13:37;;;;;;;3.05;1.20;;;;;;;;;;4988622;28;20030;-66
2023/09/21 01:16:04;;;;;;;1.30;0.93;;;;;;;;;;4993758;28;20109;-66
2023/09/21 01:18:31;;;;;;;1.92;1.48;;;;;;;;;;4988321;28;20046;-66
2023/09/21 01:21:04;;;;;;;3.15;1.50;;;;;;;;;;4995884;28;20042;-66
2023/09/21 01:23:41;;;;;;;5.15;1.40;;;;;;;;;;4983082;28;20153;-67
2023/09/21 01:26:06;;;;;;;3.63;1.27;;;;;;;;;;4996150;28;20050;-66
2023/09/21 01:28:32;;;;;;;2.65;1.63;;;;;;;;;;4991653;28;20053;-66
2023/09/21 01:30:57;;;;;;;2.15;0.98;;;;;;;;;;4992471;28;20056;-67
2023/09/21 01:33:24;;;;;;;2.97;1.23;;;;;;;;;;4995742;28;20088;-66
2023/09/21 01:35:50;;;;;;;1.23;1.13;;;;;;;;;;4992186;28;20038;-66
2023/09/21 01:38:17;;;;;;;3.40;1.40;;;;;;;;;;4992808;28;20105;-67
2023/09/21 01:40:43;;;;;;;2.03;1.10;;;;;;;;;;4987827;28;20046;-67
2023/09/21 01:43:11;;;;;;;5.03;1.42;;;;;;;;;;4999425;28;20030;-67
2023/09/21 01:45:39;;;;;;;1.35;1.08;;;;;;;;;;4989831;28;20396;-67
2023/09/21 01:48:09;;;;;;;1.35;1.20;;;;;;;;;;5027219;28;20033;-67
2023/09/21 01:50:52;;;;;;;3.00;1.35;;;;;;;;;;4993433;28;20054;-67
2023/09/21 01:53:20;;;;;;;2.67;1.25;;;;;;;;;;4993482;28;20731;-67
2023/09/21 01:55:47;;;;;;;2.35;1.60;;;;;;;;;;4992675;28;20154;-67
2023/09/21 01:58:13;;;;;;;2.78;1.38;;;;;;;;;;4994529;28;20443;-67
2023/09/21 02:00:40;;;;;;;3.03;1.42;;;;;;;;;;4993901;28;20034;-67
2023/09/21 02:03:09;;;;;;;5.03;1.48;;;;;;;;;;4987303;28;20041;-67
2023/09/21 02:05:46;;;;;;;4.30;1.23;;;;;;;;;;4991211;28;20492;-67
2023/09/21 02:08:12;;;;;;;3.28;1.38;;;;;;;;;;4989246;28;20023;-66
2023/09/21 02:10:40;;;;;;;4.05;1.50;;;;;;;;;;4985683;28;20035;-66
2023/09/21 02:13:06;;;;;;;5.22;1.52;;;;;;;;;;4980193;28;20039;-66
2023/09/21 02:15:37;;;;;;;2.65;1.35;;;;;;;;;;4990174;28;20038;-66
2023/09/21 02:18:04;;;;;;;6.70;1.67;;;;;;;;;;4990309;28;20026;-67
2023/09/21 02:20:31;;;;;;;2.08;1.10;;;;;;;;;;4991269;28;20548;-66
2023/09/21 02:23:01;;;;;;;3.55;1.60;;;;;;;;;;4996524;28;20113;-66
2023/09/21 02:25:31;;;;;;;2.60;1.60;;;;;;;;;;4984044;28;20045;-66
2023/09/21 02:27:57;;;;;;;8.02;1.50;;;;;;;;;;4993067;28;20042;-66
2023/09/21 02:30:24;;;;;;;2.60;1.48;;;;;;;;;;4996182;28;20471;-66
2023/09/21 02:32:51;;;;;;;2.65;1.05;;;;;;;;;;4991617;28;20037;-66
2023/09/21 02:35:19;;;;;;;3.20;1.63;;;;;;;;;;4987099;28;20042;-66
2023/09/21 02:37:48;;;;;;;2.25;1.10;;;;;;;;;;4984968;28;20142;-67
2023/09/21 02:40:14;;;;;;;3.78;1.20;;;;;;;;;;4988679;28;20126;-67
2023/09/21 02:42:44;;;;;;;5.50;1.55;;;;;;;;;;4994209;28;20031;-67
2023/09/21 02:45:11;;;;;;;2.22;1.25;;;;;;;;;;4987771;28;20049;-67
2023/09/21 02:47:37;;;;;;;3.28;1.08;;;;;;;;;;4990170;28;20047;-66
2023/09/21 02:50:20;;;;;;;2.40;1.38;;;;;;;;;;4989747;28;20031;-67
2023/09/21 02:53:06;;;;;;;2.92;1.60;;;;;;;;;;4995987;28;20057;-67
2023/09/21 02:55:33;;;;;;;1.58;1.00;;;;;;;;;;4993072;28;20105;-66
2023/09/21 02:58:10;;;;;;;2.05;1.40;;;;;;;;;;4992957;28;20045;-66
2023/09/21 03:00:42;;;;;;;2.53;1.25;;;;;;;;;;4997854;28;20042;-66
2023/09/21 03:03:10;;;;;;;2.75;1.10;;;;;;;;;;4988940;28;20723;-66
2023/09/21 03:05:38;;;;;;;1.95;1.33;;;;;;;;;;4998644;28;20042;-66
2023/09/21 03:08:13;;;;;;;3.25;0.93;;;;;;;;;;4997580;28;20121;-66
2023/09/21 03:10:44;;;;;;;1.10;0.85;;;;;;;;;;4998976;28;20042;-66
2023/09/21 03:13:10;;;;;;;2.60;1.20;;;;;;;;;;4992574;28;20096;-66
2023/09/21 03:15:36;;;;;;;2.80;1.08;;;;;;;;;;4986053;28;20100;-66
2023/09/21 03:18:10;;;;;;;1.42;1.02;;;;;;;;;;4992299;28;20022;-66
2023/09/21 03:20:36;;;;;;;1.67;1.15;;;;;;;;;;4989924;28;20062;-66
2023/09/21 03:23:09;;;;;;;1.77;1.00;;;;;;;;;;4998099;28;20030;-66
2023/09/21 03:25:54;;;;;;;3.35;1.20;;;;;;;;;;4998285;28;20046;-66
2023/09/21 03:28:22;;;;;;;5.55;1.08;;;;;;;;;;4995112;28;20093;-66
2023/09/21 03:30:51;;;;;;;2.05;1.00;;;;;;;;;;4996423;28;20049;-66
2023/09/21 03:33:18;;;;;;;1.65;0.93;;;;;;;;;;4986323;28;20037;-66
2023/09/21 03:35:44;;;;;;;2.50;0.98;;;;;;;;;;4989475;28;20039;-66
2023/09/21 03:38:13;;;;;;;2.63;0.85;;;;;;;;;;4988983;28;20034;-66
2023/09/21 03:40:39;;;;;;;2.55;1.27;;;;;;;;;;4996481;28;20034;-66
2023/09/21 03:43:06;;;;;;;3.08;1.35;;;;;;;;;;4990957;28;20757;-66
2023/09/21 03:45:32;;;;;;;2.22;1.00;;;;;;;;;;4993681;28;20192;-66
2023/09/21 03:47:59;;;;;;;3.17;1.13;;;;;;;;;;4993793;28;20054;-67
2023/09/21 03:50:25;;;;;;;3.22;1.10;;;;;;;;;;4998048;28;20042;-66
2023/09/21 03:52:53;;;;;;;1.33;0.88;;;;;;;;;;4992737;28;20046;-66
2023/09/21 03:55:19;;;;;;;0.93;0.68;;;;;;;;;;4996677;28;20568;-66
2023/09/21 03:57:46;;;;;;;2.55;1.08;;;;;;;;;;4997502;28;20029;-66
2023/09/21 04:02:48;;;;;;;2.95;1.05;;;;;;;;;;4994765;28;20416;-66
2023/09/21 04:05:18;;;;;;;1.50;1.00;;;;;;;;;;4997290;28;20039;-66
2023/09/21 04:07:44;;;;;;;2.83;1.08;;;;;;;;;;4993544;28;20129;-66
2023/09/21 04:10:09;;;;;;;2.97;0.90;;;;;;;;;;4995602;28;20066;-66
2023/09/21 04:12:35;;;;;;;1.27;1.10;;;;;;;;;;4996209;28;20045;-66
2023/09/21 04:15:00;;;;;;;1.48;0.70;;;;;;;;;;4993014;28;20030;-66
2023/09/21 04:17:28;;;;;;;4.60;1.15;;;;;;;;;;4987699;28;20030;-66
2023/09/21 04:19:54;;;;;;;1.52;0.98;;;;;;;;;;4997361;28;20050;-66
2023/09/21 04:22:19;;;;;;;1.70;1.00;;;;;;;;;;4997808;28;20054;-66
2023/09/21 04:24:45;;;;;;;1.80;1.00;;;;;;;;;;4997105;28;20046;-66
2023/09/21 04:27:11;;;;;;;1.02;0.70;;;;;;;;;;4991111;28;20045;-66
2023/09/21 04:29:36;;;;;;;3.88;0.90;;;;;;;;;;4997303;28;20066;-66
2023/09/21 04:32:02;;;;;;;0.98;0.90;;;;;;;;;;4992769;28;20038;-66
2023/09/21 04:34:27;;;;;;;1.30;0.95;;;;;;;;;;4995682;28;20054;-66
2023/09/21 04:36:53;;;;;;;2.95;0.98;;;;;;;;;;4997361;28;20073;-66
2023/09/21 04:39:19;;;;;;;1.10;1.00;;;;;;;;;;4994685;28;20037;-66
2023/09/21 04:41:44;;;;;;;0.85;0.80;;;;;;;;;;4985594;28;20050;-66
2023/09/21 04:44:10;;;;;;;2.95;0.90;;;;;;;;;;4992648;28;20030;-66
2023/09/21 04:46:39;;;;;;;1.10;0.90;;;;;;;;;;4988042;28;20057;-66
2023/09/21 04:49:04;;;;;;;1.60;0.85;;;;;;;;;;4983210;28;20484;-66
2023/09/21 04:51:29;;;;;;;1.65;0.90;;;;;;;;;;4980064;28;20087;-66
2023/09/21 04:53:55;;;;;;;4.53;1.35;;;;;;;;;;4985461;28;20039;-67
2023/09/21 04:56:20;;;;;;;1.10;0.88;;;;;;;;;;4993546;28;20039;-67
2023/09/21 04:58:46;;;;;;;1.42;0.90;;;;;;;;;;4986141;28;20038;-66
2023/09/21 05:01:12;;;;;;;0.85;0.85;;;;;;;;;;4982598;28;20046;-66
2023/09/21 05:03:37;;;;;;;2.60;0.85;;;;;;;;;;4993211;28;20026;-66
2023/09/21 05:06:05;;;;;;;4.20;0.95;;;;;;;;;;4985990;28;20031;-68
2023/09/21 05:08:36;;;;;;;0.88;0.70;;;;;;;;;;4988007;28;20404;-67
2023/09/21 05:11:04;;;;;;;1.30;0.70;;;;;;;;;;4986088;28;20062;-64
2023/09/21 05:13:31;;;;;;;1.23;0.80;;;;;;;;;;4989798;28;20022;-66
2023/09/21 05:15:56;;;;;;;2.95;0.80;;;;;;;;;;4993267;28;20042;-65
2023/09/21 05:18:22;;;;;;;0.60;0.60;;;;;;;;;;4990897;28;20065;-65
2023/09/21 05:20:49;;;;;;;2.72;0.75;;;;;;;;;;4983294;28;20042;-66
2023/09/21 05:23:15;;;;;;;1.17;0.98;;;;;;;;;;4984063;28;20053;-66
2023/09/21 05:25:40;;;;;;;0.50;0.50;;;;;;;;;;4985441;28;20050;-66
2023/09/21 05:28:05;;;;;;;1.02;0.70;;;;;;;;;;4985295;28;20669;-67
2023/09/21 05:30:31;;;;;;;2.05;0.80;;;;;;;;;;4983650;28;20749;-66
2023/09/21 05:32:57;;;;;;;1.00;0.90;;;;;;;;;;4992411;28;20018;-66
2023/09/21 05:35:23;;;;;;;0.60;0.60;;;;;;;;;;4992270;28;20114;-66
2023/09/21 05:37:49;;;;;;;1.80;0.77;;;;;;;;;;4990464;28;20023;-66
2023/09/21 05:40:15;;;;;;;1.38;0.73;;;;;;;;;;4984048;28;20034;-67
2023/09/21 05:42:41;;;;;;;0.40;0.40;;;;;;;;;;4984101;28;20034;-68
2023/09/21 05:45:08;;;;;;;2.25;0.60;;;;;;;;;;4985110;28;20034;-67
2023/09/21 05:47:33;;;;;;;2.67;0.55;;;;;;;;;;4985182;28;20766;-67
2023/09/21 05:49:59;;;;;;;2.63;0.68;;;;;;;;;;4984819;28;20034;-67
2023/09/21 05:52:25;;;;;;;0.85;0.68;;;;;;;;;;4983695;28;20053;-67
2023/09/21 05:54:51;;;;;;;1.33;0.40;;;;;;;;;;4982444;28;20530;-67
2023/09/21 05:57:17;;;;;;;0.68;0.68;;;;;;;;;;4989718;28;20440;-67
2023/09/21 05:59:43;;;;;;;0.98;0.60;;;;;;;;;;4986115;28;20042;-66
2023/09/21 06:02:13;;;;;;;0.93;0.65;;;;;;;;;;4987523;28;20077;-66
2023/09/21 06:04:40;;;;;;;1.35;0.50;;;;;;;;;;4991653;28;20034;-67
2023/09/21 06:07:05;;;;;;;0.90;0.65;;;;;;;;;;4994979;28;20038;-67
2023/09/21 06:09:33;;;;;;;0.65;0.40;;;;;;;;;;4987411;28;20065;-67
2023/09/21 06:11:59;;;;;;;0.70;0.60;;;;;;;;;;4993888;28;20648;-67
2023/09/21 06:14:24;;;;;;;0.88;0.52;;;;;;;;;;4984598;28;20081;-67
2023/09/21 06:16:51;;;;;;;6.63;0.65;;;;;;;;;;4988411;28;20705;-67
2023/09/21 06:19:18;;;;;;;12.98;0.80;;;;;;;;;;4983509;28;20050;-67
2023/09/21 06:21:45;;;;;;;2.83;0.70;;;;;;;;;;4990746;28;20066;-67
2023/09/21 06:24:11;;;;;;;4.45;0.93;;;;;;;;;;4980204;28;20023;-67
2023/09/21 06:26:37;;;;;;;2.80;0.70;;;;;;;;;;4990855;28;20053;-67
2023/09/21 06:29:03;;;;;;;1.42;0.55;;;;;;;;;;4994610;28;20026;-67
2023/09/21 06:31:29;;;;;;;3.20;0.68;;;;;;;;;;4984123;28;20070;-65
2023/09/21 06:34:01;;;;;;;1.13;0.60;;;;;;;;;;4990209;28;20074;-67
2023/09/21 06:36:28;;;;;;;6.40;0.60;;;;;;;;;;4992159;28;20040;-66
2023/09/21 06:38:55;;;;;;;1.95;0.70;;;;;;;;;;4995843;28;20023;-66
2023/09/21 06:41:21;;;;;;;5.63;1.23;;;;;;;;;;4995090;28;20027;-67
2023/09/21 06:43:46;;;;;;;6.22;0.60;;;;;;;;;;4992145;28;20496;-66
2023/09/21 06:46:13;;;;;;;6.20;1.00;;;;;;;;;;4990951;28;20042;-66
2023/09/21 06:48:41;;;;;;;0.75;0.70;;;;;;;;;;4994492;28;20038;-66
2023/09/21 06:51:09;;;;;;;5.20;0.73;;;;;;;;;;4990912;28;20030;-66
2023/09/21 06:53:36;;;;;;;3.45;0.98;;;;;;;;;;4993105;28;20029;-66
2023/09/21 06:56:02;;;;;;;5.03;1.08;;;;;;;;;;4993515;28;20046;-66
2023/09/21 06:58:30;;;;;;;1.85;0.80;;;;;;;;;;4986864;28;20433;-66
2023/09/21 07:00:58;;;;;;;0.82;0.63;;;;;;;;;;4989050;28;20129;-65
2023/09/21 07:03:24;;;;;;;1.85;0.77;;;;;;;;;;4989058;28;20539;-66
2023/09/21 07:05:49;;;;;;;2.97;0.75;;;;;;;;;;4989281;28;20030;-66
2023/09/21 07:08:16;;;;;;;1.80;0.90;;;;;;;;;;4997303;28;20031;-66
2023/09/21 07:10:43;;;;;;;5.40;0.90;;;;;;;;;;4991440;28;20158;-66
2023/09/21 07:13:09;;;;;;;0.82;0.82;;;;;;;;;;4996180;28;20042;-66
2023/09/21 07:15:34;;;;;;;1.35;1.00;;;;;;;;;;4995275;28;20038;-66
2023/09/21 07:18:00;;;;;;;5.18;1.50;;;;;;;;;;4996055;28;20033;-66
2023/09/21 07:20:26;;;;;;;1.73;1.00;;;;;;;;;;4993394;28;20721;-66
2023/09/21 07:22:55;;;;;;;1.45;1.08;;;;;;;;;;4990785;28;20019;-66
2023/09/21 07:25:22;;;;;;;3.55;1.08;;;;;;;;;;4993614;28;20117;-66
2023/09/21 07:27:48;;;;;;;2.60;1.23;;;;;;;;;;4997598;28;20027;-66
2023/09/21 07:30:14;;;;;;;1.42;0.98;;;;;;;;;;4988144;28;20104;-66
2023/09/21 07:32:40;;;;;;;4.32;1.40;;;;;;;;;;4990215;28;20023;-66
2023/09/21 07:35:09;;;;;;;2.40;1.25;;;;;;;;;;4997186;28;20085;-66
2023/09/21 07:37:35;;;;;;;1.98;1.00;;;;;;;;;;4994424;28;20117;-65
2023/09/21 07:40:06;;;;;;;2.35;1.50;;;;;;;;;;4986945;28;20069;-66
2023/09/21 07:42:33;;;;;;;3.08;1.23;;;;;;;;;;4988844;28;20042;-66
2023/09/21 07:44:59;;;;;;;9.27;1.65;;;;;;;;;;4987525;28;20037;-66
2023/09/21 07:47:25;;;;;;;5.85;2.15;;;;;;;;;;4996289;28;20030;-66
2023/09/21 07:49:54;;;;;;;4.55;1.70;;;;;;;;;;4992756;28;20026;-66
2023/09/21 07:52:23;;;;;;;3.92;1.70;;;;;;;;;;4975583;28;20061;-66
2023/09/21 07:54:49;;;;;;;3.85;2.00;;;;;;;;;;5007664;28;20031;-66
2023/09/21 07:57:16;;;;;;;6.93;2.38;;;;;;;;;;4989629;28;20033;-66
2023/09/21 07:59:42;;;;;;;6.80;1.92;;;;;;;;;;4992540;28;20032;-66
2023/09/21 08:02:07;;;;;;;5.40;2.00;;;;;;;;;;4990839;28;20106;-66
2023/09/21 08:04:32;;;;;;;7.55;1.80;;;;;;;;;;4984814;28;20030;-67
2023/09/21 08:06:59;;;;;;;7.53;2.58;;;;;;;;;;4989820;28;20093;-66
2023/09/21 08:09:25;;;;;;;8.02;2.58;;;;;;;;;;4985639;28;20058;-66
2023/09/21 08:11:51;;;;;;;8.82;2.05;;;;;;;;;;4991771;28;20042;-66
2023/09/21 08:14:16;;;;;;;5.15;2.00;;;;;;;;;;4983194;28;20070;-66
2023/09/21 08:16:42;;;;;;;5.57;1.90;;;;;;;;;;4996817;28;20039;-66
2023/09/21 08:19:08;;;;;;;13.00;2.30;;;;;;;;;;4949122;28;1275456;-66
2023/09/21 08:21:33;;;;;;;6.43;2.30;;;;;;;;;;4991215;28;20163;-66
2023/09/21 08:23:59;;;;;;;7.60;2.33;;;;;;;;;;4990509;28;20030;-66
2023/09/21 08:26:25;;;;;;;11.60;2.58;;;;;;;;;;4982282;28;20061;-66
2023/09/21 08:28:52;;;;;;;6.03;2.38;;;;;;;;;;4996361;28;20712;-66
2023/09/21 08:31:19;;;;;;;5.30;2.38;;;;;;;;;;4987835;28;20035;-66
2023/09/21 08:33:46;;;;;;;3.80;2.42;;;;;;;;;;4991785;28;20089;-66
2023/09/21 08:36:15;;;;;;;5.40;1.98;;;;;;;;;;4982204;28;20045;-66
2023/09/21 08:38:41;;;;;;;8.13;2.53;;;;;;;;;;4992528;28;20058;-66
2023/09/21 08:41:08;;;;;;;8.10;2.70;;;;;;;;;;4971920;28;20035;-65
2023/09/21 08:43:34;;;;;;;7.68;2.53;;;;;;;;;;4992214;28;20137;-65
2023/09/21 08:46:00;;;;;;;9.07;2.67;;;;;;;;;;4982255;28;20106;-66
2023/09/21 08:48:27;;;;;;;18.02;4.28;;;;;;;;;;4984964;28;20081;-66
2023/09/21 08:50:54;;;;;;;24.90;5.00;;;;;;;;;;4996691;28;20035;-66
2023/09/21 08:53:25;;;;;;;24.13;5.35;;;;;;;;;;4995417;28;20178;-66
2023/09/21 08:55:52;;;;;;;29.55;5.18;;;;;;;;;;4990921;28;20045;-66
2023/09/21 08:58:24;;;;;;;22.58;4.57;;;;;;;;;;4991320;28;20026;-66
2023/09/21 09:00:56;;;;;;;18.38;4.82;;;;;;;;;;4994793;28;20056;-66
2023/09/21 09:03:25;;;;;;;18.77;4.13;;;;;;;;;;4993067;28;20022;-66
2023/09/21 09:05:52;;;;;;;27.52;4.88;;;;;;;;;;4983046;28;20066;-66
2023/09/21 09:08:18;;;;;;;37.53;6.07;;;;;;;;;;4994821;28;20038;-65
2023/09/21 09:10:43;;;;;;;28.38;5.60;;;;;;;;;;4993252;28;20520;-66
2023/09/21 09:13:09;;;;;;;18.92;4.88;;;;;;;;;;4991685;28;20037;-66
2023/09/21 09:15:37;;;;;;;21.45;4.82;;;;;;;;;;4995069;28;20476;-66
2023/09/21 09:18:05;;;;;;;30.63;5.13;;;;;;;;;;4985303;28;20026;-66
2023/09/21 09:20:32;;;;;;;18.50;4.72;;;;;;;;;;4990664;28;20038;-66
2023/09/21 09:23:00;;;;;;;19.50;4.20;;;;;;;;;;4989768;28;20034;-66
2023/09/21 09:25:26;;;;;;;15.55;4.30;;;;;;;;;;4992062;28;20478;-66
2023/09/21 09:27:51;;;;;;;17.40;4.38;;;;;;;;;;4993843;28;20061;-66
2023/09/21 09:30:20;;;;;;;20.73;4.70;;;;;;;;;;4989375;28;20756;-66
2023/09/21 09:32:47;;;;;;;18.00;4.32;;;;;;;;;;4992234;28;20031;-66
2023/09/21 09:35:13;;;;;;;25.92;5.32;;;;;;;;;;4983794;28;20038;-66
2023/09/21 09:37:40;;;;;;;31.27;4.72;;;;;;;;;;4992193;28;20021;-66
2023/09/21 09:40:10;;;;;;;16.98;3.97;;;;;;;;;;4983947;28;20045;-66
2023/09/21 09:42:43;;;;;;;18.48;4.50;;;;;;;;;;4985182;28;20444;-66
2023/09/21 09:45:32;;;;;;;15.30;3.88;;;;;;;;;;4983647;28;20030;-66
2023/09/21 09:48:01;;;;;;;23.23;4.72;;;;;;;;;;4991249;28;20022;-66
2023/09/21 09:50:35;;;;;;;27.88;6.00;;;;;;;;;;4991188;28;20106;-66
2023/09/21 09:53:05;;;;;;;32.95;6.10;;;;;;;;;;4990615;28;20432;-66
2023/09/21 09:55:33;;;;;;;25.42;5.60;;;;;;;;;;4983723;28;20553;-66
2023/09/21 09:58:03;;;;;;;23.77;4.95;;;;;;;;;;4989537;28;20026;-66
2023/09/21 10:00:30;;;;;;;19.45;4.35;;;;;;;;;;4983231;28;20049;-66
2023/09/21 10:02:56;;;;;;;25.52;4.32;;;;;;;;;;4990724;28;20028;-67
2023/09/21 10:05:27;;;;;;;28.50;4.75;;;;;;;;;;4991260;28;20041;-67
2023/09/21 10:07:59;;;;;;;21.23;4.60;;;;;;;;;;4992380;28;20057;-66
2023/09/21 10:10:30;;;;;;;26.60;4.88;;;;;;;;;;4986151;28;20048;-66
2023/09/21 10:12:57;;;;;;;23.38;4.32;;;;;;;;;;4990253;28;20027;-65
2023/09/21 10:15:24;;;;;;;14.40;3.75;;;;;;;;;;4986304;28;20034;-66
2023/09/21 10:17:50;;;;;;;13.95;3.33;;;;;;;;;;4987934;28;20042;-67
2023/09/21 10:20:25;;;;;;;18.02;4.10;;;;;;;;;;4982250;28;20038;-66
2023/09/21 10:22:52;;;;;;;11.95;3.50;;;;;;;;;;4982545;28;20049;-67
2023/09/21 10:25:44;;;;;;;11.48;2.95;;;;;;;;;;4980688;28;20074;-66
2023/09/21 10:28:35;;;;;;;9.52;3.15;;;;;;;;;;4988360;28;20125;-67
2023/09/21 10:31:06;;;;;;;8.23;3.35;;;;;;;;;;4983558;28;20592;-66
2023/09/21 10:33:58;;;;;;;8.63;2.95;;;;;;;;;;4981268;28;20106;-67
2023/09/21 10:36:26;;;;;;;12.68;2.70;;;;;;;;;;4980225;28;20220;-67
2023/09/21 10:39:10;;;;;;;8.55;3.30;;;;;;;;;;4986836;28;20039;-67
2023/09/21 10:41:45;;;;;;;6.97;2.25;;;;;;;;;;4985418;28;20069;-67
2023/09/21 10:44:12;;;;;;;9.15;2.97;;;;;;;;;;4991282;28;20031;-67
2023/09/21 10:46:41;;;;;;;9.15;2.72;;;;;;;;;;4983678;28;20049;-67
2023/09/21 10:49:06;;;;;;;5.10;2.40;;;;;;;;;;4987109;28;20096;-68
2023/09/21 10:51:39;;;;;;;8.75;2.35;;;;;;;;;;4979775;28;20043;-67
2023/09/21 10:54:10;;;;;;;5.50;2.10;;;;;;;;;;4985095;28;20082;-65
2023/09/21 10:56:37;;;;;;;6.72;2.40;;;;;;;;;;4989717;28;20549;-65
2023/09/21 10:59:03;;;;;;;4.28;2.20;;;;;;;;;;4990929;28;20122;-65
2023/09/21 11:01:29;;;;;;;5.03;2.10;;;;;;;;;;4984777;28;20058;-66
2023/09/21 11:03:55;;;;;;;4.80;2.10;;;;;;;;;;4987176;28;20054;-66
2023/09/21 11:06:21;;;;;;;8.10;2.95;;;;;;;;;;4989202;28;20045;-66
2023/09/21 11:08:47;;;;;;;5.25;2.15;;;;;;;;;;4991232;28;20045;-66
2023/09/21 11:11:13;;;;;;;3.85;2.33;;;;;;;;;;4990898;28;20031;-66
2023/09/21 11:13:39;;;;;;;3.70;1.90;;;;;;;;;;4998163;28;20057;-66
2023/09/21 11:16:06;;;;;;;4.60;2.42;;;;;;;;;;4991763;28;20508;-66
2023/09/21 11:18:32;;;;;;;8.63;2.10;;;;;;;;;;4995931;28;20137;-66
2023/09/21 11:20:58;;;;;;;6.55;2.80;;;;;;;;;;4997942;28;20539;-66
2023/09/21 11:23:24;;;;;;;4.95;2.13;;;;;;;;;;4987291;28;20037;-66
2023/09/21 11:25:49;;;;;;;5.80;2.08;;;;;;;;;;4986839;28;20061;-66
2023/09/21 11:28:24;;;;;;;5.53;2.28;;;;;;;;;;4994795;28;20030;-66
2023/09/21 11:30:51;;;;;;;5.15;2.13;;;;;;;;;;4987260;28;20146;-66
2023/09/21 11:33:19;;;;;;;3.40;1.83;;;;;;;;;;4993730;28;20077;-66
2023/09/21 11:35:45;;;;;;;5.47;2.15;;;;;;;;;;4996138;28;20038;-66
2023/09/21 11:38:12;;;;;;;5.78;2.50;;;;;;;;;;4993820;28;20082;-66
2023/09/21 11:40:37;;;;;;;3.78;1.90;;;;;;;;;;4989698;28;20105;-66
2023/09/21 11:43:04;;;;;;;3.90;1.90;;;;;;;;;;4994543;28;20034;-66
2023/09/21 11:45:30;;;;;;;3.05;1.95;;;;;;;;;;4996439;28;20054;-66
2023/09/21 11:47:59;;;;;;;2.55;2.28;;;;;;;;;;4994956;28;20023;-66
2023/09/21 11:50:31;;;;;;;5.97;2.80;;;;;;;;;;4997801;28;20043;-66
2023/09/21 11:52:57;;;;;;;4.38;2.33;;;;;;;;;;4993422;28;20117;-66
2023/09/21 11:55:30;;;;;;;4.40;2.30;;;;;;;;;;4994705;28;20068;-66
2023/09/21 11:58:09;;;;;;;6.97;2.17;;;;;;;;;;4984363;28;20394;-66
2023/09/21 12:03:45;;;;;;;3.38;2.15;;;;;;;;;;5010165;28;20034;-66
2023/09/21 12:06:12;;;;;;;2.90;2.20;;;;;;;;;;5013881;28;20099;-66
2023/09/21 12:08:37;;;;;;;5.47;2.28;;;;;;;;;;4990097;28;20054;-66
2023/09/21 12:11:04;;;;;;;4.03;2.05;;;;;;;;;;4990678;28;20407;-66
2023/09/21 12:13:30;;;;;;;4.47;2.20;;;;;;;;;;4993473;28;20027;-66
2023/09/21 12:15:55;;;;;;;4.60;2.45;;;;;;;;;;4986387;28;20088;-66
2023/09/21 12:18:21;;;;;;;4.80;2.30;;;;;;;;;;4989860;28;20026;-66
2023/09/21 12:20:51;;;;;;;4.72;2.20;;;;;;;;;;4995232;28;20042;-66
2023/09/21 12:23:17;;;;;;;4.07;2.20;;;;;;;;;;4996224;28;20034;-66
2023/09/21 12:25:43;;;;;;;3.42;2.13;;;;;;;;;;4995343;28;20100;-66
2023/09/21 12:28:11;;;;;;;6.82;2.58;;;;;;;;;;4990618;28;20125;-66
2023/09/21 12:30:38;;;;;;;5.03;2.20;;;;;;;;;;4992942;28;20039;-66
2023/09/21 12:33:06;;;;;;;6.15;2.20;;;;;;;;;;4997640;28;20058;-66
2023/09/21 12:35:31;;;;;;;6.10;2.60;;;;;;;;;;4996544;28;20088;-66
2023/09/21 12:37:58;;;;;;;5.00;2.53;;;;;;;;;;4996828;28;20045;-66
2023/09/21 12:40:23;;;;;;;5.60;2.58;;;;;;;;;;4984035;28;20042;-66
2023/09/21 12:42:49;;;;;;;5.35;2.70;;;;;;;;;;4989795;28;20030;-66
2023/09/21 12:45:15;;;;;;;5.10;2.50;;;;;;;;;;4986457;28;20066;-66
2023/09/21 12:47:41;;;;;;;5.22;2.30;;;;;;;;;;4985753;28;20034;-66
2023/09/21 12:50:08;;;;;;;7.10;2.55;;;;;;;;;;4990523;28;20029;-66
2023/09/21 12:52:35;;;;;;;6.97;2.33;;;;;;;;;;4986844;28;20022;-66
2023/09/21 12:55:01;;;;;;;8.52;2.53;;;;;;;;;;4989230;28;20053;-66
2023/09/21 12:57:30;;;;;;;5.13;2.50;;;;;;;;;;4991269;28;20022;-65
2023/09/21 12:59:55;;;;;;;5.53;2.40;;;;;;;;;;4990211;28;20022;-66
2023/09/21 13:02:27;;;;;;;6.15;2.50;;;;;;;;;;4988805;28;20468;-66
2023/09/21 13:04:56;;;;;;;6.65;2.60;;;;;;;;;;4994758;28;20027;-66
2023/09/21 13:07:24;;;;;;;6.07;2.53;;;;;;;;;;4993800;28;20449;-66
2023/09/21 13:09:50;;;;;;;5.55;2.65;;;;;;;;;;4994711;28;20507;-66
2023/09/21 13:12:16;;;;;;;3.95;2.33;;;;;;;;;;4990371;28;20489;-66
2023/09/21 13:14:41;;;;;;;3.58;2.55;;;;;;;;;;4987586;28;20089;-66
2023/09/21 13:17:07;;;;;;;3.83;2.30;;;;;;;;;;4992218;28;20114;-66
2023/09/21 13:19:32;;;;;;;6.07;2.60;;;;;;;;;;4993613;28;20054;-66
2023/09/21 13:21:58;;;;;;;8.30;2.38;;;;;;;;;;4996011;28;20511;-66
2023/09/21 13:24:23;;;;;;;6.50;3.10;;;;;;;;;;4995044;28;20034;-66
2023/09/21 13:26:48;;;;;;;6.38;2.67;;;;;;;;;;4995979;28;20064;-66
2023/09/21 13:29:14;;;;;;;4.57;2.42;;;;;;;;;;4996740;28;20042;-66
2023/09/21 13:31:40;;;;;;;4.25;2.35;;;;;;;;;;4984998;28;20030;-66
2023/09/21 13:34:05;;;;;;;3.85;2.50;;;;;;;;;;4996224;28;20207;-66
2023/09/21 13:36:30;;;;;;;3.85;2.42;;;;;;;;;;4989940;28;20057;-65
2023/09/21 13:38:56;;;;;;;5.78;2.47;;;;;;;;;;4994338;28;20177;-66
2023/09/21 13:41:22;;;;;;;6.00;2.72;;;;;;;;;;4994461;28;20066;-66
2023/09/21 13:43:47;;;;;;;3.55;2.13;;;;;;;;;;4996426;28;20033;-65
2023/09/21 13:46:13;;;;;;;4.15;2.33;;;;;;;;;;4989934;28;20043;-66
2023/09/21 13:48:38;;;;;;;5.43;2.55;;;;;;;;;;4987020;28;20030;-66
2023/09/21 13:51:04;;;;;;;8.57;3.08;;;;;;;;;;4995115;28;20036;-65
2023/09/21 13:53:30;;;;;;;4.15;2.53;;;;;;;;;;4993989;28;20034;-66
2023/09/21 13:55:55;;;;;;;6.82;3.03;;;;;;;;;;4990811;28;20038;-66
2023/09/21 13:58:21;;;;;;;5.00;2.70;;;;;;;;;;4986335;28;20022;-64
2023/09/21 14:00:49;;;;;;;6.10;2.72;;;;;;;;;;4985792;28;20519;-67
2023/09/21 14:03:15;;;;;;;10.48;3.20;;;;;;;;;;4991907;28;20022;-67
2023/09/21 14:05:41;;;;;;;4.88;2.53;;;;;;;;;;4983186;28;20046;-67
2023/09/21 14:08:09;;;;;;;10.80;4.22;;;;;;;;;;4992777;28;20026;-67
2023/09/21 14:10:35;;;;;;;4.57;3.33;;;;;;;;;;4986787;28;20515;-68
2023/09/21 14:13:01;;;;;;;7.13;3.17;;;;;;;;;;4986471;28;20085;-69
2023/09/21 14:15:27;;;;;;;10.43;3.47;;;;;;;;;;4986842;28;20038;-67
2023/09/21 14:17:53;;;;;;;7.35;3.00;;;;;;;;;;4981935;28;20038;-66
2023/09/21 14:20:21;;;;;;;7.68;3.22;;;;;;;;;;4982317;28;20122;-67
2023/09/21 14:22:46;;;;;;;4.53;2.90;;;;;;;;;;4988260;28;20045;-67
2023/09/21 14:25:12;;;;;;;9.80;2.72;;;;;;;;;;4958159;28;20432;-68
2023/09/21 14:27:37;;;;;;;8.75;3.03;;;;;;;;;;4988984;28;20033;-67
2023/09/21 14:30:04;;;;;;;10.77;3.75;;;;;;;;;;4981513;28;20107;-67
2023/09/21 14:32:29;;;;;;;8.65;3.10;;;;;;;;;;4987901;28;20031;-67
2023/09/21 14:34:54;;;;;;;8.27;2.95;;;;;;;;;;4991599;28;20484;-71
2023/09/21 14:37:20;;;;;;;4.45;2.80;;;;;;;;;;4980136;28;20594;-68
2023/09/21 14:39:45;;;;;;;10.45;2.70;;;;;;;;;;4989583;28;20026;-67
2023/09/21 14:42:12;;;;;;;21.08;4.20;;;;;;;;;;4971548;28;20034;-68
2023/09/21 14:44:37;;;;;;;10.45;3.30;;;;;;;;;;4983033;28;20026;-67
2023/09/21 14:47:05;;;;;;;7.25;3.38;;;;;;;;;;4991236;28;20045;-67
2023/09/21 14:49:31;;;;;;;9.68;3.03;;;;;;;;;;4987137;28;20026;-68